sensor_id;sensor_type;location;lat;lon;timestamp;P1;durP1;ratioP1;P2;durP2;ratioP2
76103;SDS011;64831;44.870;37.336;2023-12-04T00:01:59;14.10;;;3.92;;
76103;SDS011;64831;44.870;37.336;2023-12-04T00:04:25;16.33;;;4.00;;
76103;SDS011;64831;44.870;37.336;2023-12-04T00:06:51;17.45;;;3.95;;
76103;SDS011;64831;44.870;37.336;2023-12-04T00:09:17;12.75;;;4.15;;
76103;SDS011;64831;44.870;37.336;2023-12-04T00:11:43;18.33;;;3.50;;
76103;SDS011;64831;44.870;37.336;2023-12-04T00:14:09;15.80;;;3.90;;
76103;SDS011;64831;44.870;37.336;2023-12-04T00:16:35;18.20;;;4.20;;
76103;SDS011;64831;44.870;37.336;2023-12-04T00:19:01;21.73;;;4.20;;
76103;SDS011;64831;44.870;37.336;2023-12-04T00:21:28;26.08;;;4.38;;
76103;SDS011;64831;44.870;37.336;2023-12-04T00:23:54;18.83;;;3.83;;
76103;SDS011;64831;44.870;37.336;2023-12-04T00:26:19;16.55;;;2.90;;
76103;SDS011;64831;44.870;37.336;2023-12-04T00:28:45;23.90;;;4.25;;
76103;SDS011;64831;44.870;37.336;2023-12-04T00:31:11;14.48;;;4.18;;
76103;SDS011;64831;44.870;37.336;2023-12-04T00:33:37;15.88;;;4.30;;
76103;SDS011;64831;44.870;37.336;2023-12-04T00:36:03;21.10;;;4.57;;
76103;SDS011;64831;44.870;37.336;2023-12-04T00:38:29;21.60;;;4.00;;
76103;SDS011;64831;44.870;37.336;2023-12-04T00:40:55;20.38;;;4.10;;
76103;SDS011;64831;44.870;37.336;2023-12-04T00:43:21;16.98;;;3.72;;
76103;SDS011;64831;44.870;37.336;2023-12-04T00:45:47;21.48;;;4.18;;
76103;SDS011;64831;44.870;37.336;2023-12-04T00:48:13;13.02;;;4.15;;
76103;SDS011;64831;44.870;37.336;2023-12-04T00:50:39;18.88;;;5.10;;
76103;SDS011;64831;44.870;37.336;2023-12-04T00:53:05;24.83;;;6.25;;
76103;SDS011;64831;44.870;37.336;2023-12-04T00:55:31;23.92;;;4.85;;
76103;SDS011;64831;44.870;37.336;2023-12-04T00:57:57;20.38;;;4.53;;
76103;SDS011;64831;44.870;37.336;2023-12-04T01:00:23;14.32;;;4.13;;
76103;SDS011;64831;44.870;37.336;2023-12-04T01:02:48;19.17;;;4.68;;
76103;SDS011;64831;44.870;37.336;2023-12-04T01:05:15;18.75;;;3.50;;
76103;SDS011;64831;44.870;37.336;2023-12-04T01:07:41;15.15;;;2.65;;
76103;SDS011;64831;44.870;37.336;2023-12-04T01:10:06;4.72;;;1.92;;
76103;SDS011;64831;44.870;37.336;2023-12-04T01:12:33;22.25;;;4.57;;
76103;SDS011;64831;44.870;37.336;2023-12-04T01:14:59;11.52;;;3.00;;
76103;SDS011;64831;44.870;37.336;2023-12-04T01:17:24;21.83;;;4.88;;
76103;SDS011;64831;44.870;37.336;2023-12-04T01:19:50;18.17;;;4.35;;
76103;SDS011;64831;44.870;37.336;2023-12-04T01:22:16;10.00;;;3.42;;
76103;SDS011;64831;44.870;37.336;2023-12-04T01:24:42;17.90;;;4.00;;
76103;SDS011;64831;44.870;37.336;2023-12-04T01:27:08;17.30;;;3.83;;
76103;SDS011;64831;44.870;37.336;2023-12-04T01:29:34;20.20;;;4.18;;
76103;SDS011;64831;44.870;37.336;2023-12-04T01:32:00;17.05;;;3.42;;
76103;SDS011;64831;44.870;37.336;2023-12-04T01:34:26;15.35;;;4.20;;
76103;SDS011;64831;44.870;37.336;2023-12-04T01:36:52;20.88;;;4.65;;
76103;SDS011;64831;44.870;37.336;2023-12-04T01:39:18;21.65;;;4.45;;
76103;SDS011;64831;44.870;37.336;2023-12-04T01:41:44;29.33;;;4.57;;
76103;SDS011;64831;44.870;37.336;2023-12-04T01:44:09;22.30;;;4.65;;
76103;SDS011;64831;44.870;37.336;2023-12-04T01:46:36;22.20;;;4.70;;
76103;SDS011;64831;44.870;37.336;2023-12-04T01:49:02;19.88;;;4.82;;
76103;SDS011;64831;44.870;37.336;2023-12-04T01:51:28;20.35;;;4.70;;
76103;SDS011;64831;44.870;37.336;2023-12-04T01:53:55;19.90;;;4.57;;
76103;SDS011;64831;44.870;37.336;2023-12-04T01:56:24;17.13;;;3.83;;
76103;SDS011;64831;44.870;37.336;2023-12-04T01:58:50;22.27;;;4.60;;
76103;SDS011;64831;44.870;37.336;2023-12-04T02:01:17;16.40;;;4.18;;
76103;SDS011;64831;44.870;37.336;2023-12-04T02:03:44;25.13;;;5.00;;
76103;SDS011;64831;44.870;37.336;2023-12-04T02:06:11;27.27;;;5.05;;
76103;SDS011;64831;44.870;37.336;2023-12-04T02:08:37;22.67;;;4.43;;
76103;SDS011;64831;44.870;37.336;2023-12-04T02:11:05;17.98;;;4.38;;
76103;SDS011;64831;44.870;37.336;2023-12-04T02:13:31;14.15;;;4.80;;
76103;SDS011;64831;44.870;37.336;2023-12-04T02:15:58;15.20;;;3.45;;
76103;SDS011;64831;44.870;37.336;2023-12-04T02:18:31;19.73;;;4.95;;
76103;SDS011;64831;44.870;37.336;2023-12-04T02:20:59;23.85;;;4.85;;
76103;SDS011;64831;44.870;37.336;2023-12-04T02:23:26;13.13;;;4.35;;
76103;SDS011;64831;44.870;37.336;2023-12-04T02:25:52;15.30;;;4.35;;
76103;SDS011;64831;44.870;37.336;2023-12-04T02:28:23;11.63;;;4.45;;
76103;SDS011;64831;44.870;37.336;2023-12-04T02:30:52;13.90;;;4.38;;
76103;SDS011;64831;44.870;37.336;2023-12-04T02:33:19;11.32;;;4.40;;
76103;SDS011;64831;44.870;37.336;2023-12-04T02:35:50;14.50;;;4.50;;
76103;SDS011;64831;44.870;37.336;2023-12-04T02:38:17;12.68;;;4.32;;
76103;SDS011;64831;44.870;37.336;2023-12-04T02:40:44;12.05;;;4.85;;
76103;SDS011;64831;44.870;37.336;2023-12-04T02:43:10;10.90;;;4.28;;
76103;SDS011;64831;44.870;37.336;2023-12-04T02:45:36;10.32;;;4.50;;
76103;SDS011;64831;44.870;37.336;2023-12-04T02:48:02;11.60;;;4.65;;
76103;SDS011;64831;44.870;37.336;2023-12-04T02:50:28;13.02;;;4.20;;
76103;SDS011;64831;44.870;37.336;2023-12-04T02:52:54;9.13;;;3.50;;
76103;SDS011;64831;44.870;37.336;2023-12-04T02:55:20;13.60;;;3.47;;
76103;SDS011;64831;44.870;37.336;2023-12-04T02:57:45;8.95;;;2.92;;
76103;SDS011;64831;44.870;37.336;2023-12-04T03:00:11;6.78;;;3.17;;
76103;SDS011;64831;44.870;37.336;2023-12-04T03:02:38;4.78;;;2.72;;
76103;SDS011;64831;44.870;37.336;2023-12-04T03:05:04;5.30;;;3.03;;
76103;SDS011;64831;44.870;37.336;2023-12-04T03:07:30;12.82;;;4.38;;
76103;SDS011;64831;44.870;37.336;2023-12-04T03:09:57;5.07;;;2.58;;
76103;SDS011;64831;44.870;37.336;2023-12-04T03:12:23;3.45;;;2.08;;
76103;SDS011;64831;44.870;37.336;2023-12-04T03:14:49;9.90;;;2.10;;
76103;SDS011;64831;44.870;37.336;2023-12-04T03:17:14;11.27;;;3.83;;
76103;SDS011;64831;44.870;37.336;2023-12-04T03:19:40;10.02;;;3.40;;
76103;SDS011;64831;44.870;37.336;2023-12-04T03:22:07;5.93;;;3.05;;
76103;SDS011;64831;44.870;37.336;2023-12-04T03:24:33;9.95;;;4.65;;
76103;SDS011;64831;44.870;37.336;2023-12-04T03:26:58;15.10;;;4.30;;
76103;SDS011;64831;44.870;37.336;2023-12-04T03:29:24;12.00;;;4.38;;
76103;SDS011;64831;44.870;37.336;2023-12-04T03:31:50;9.00;;;3.97;;
76103;SDS011;64831;44.870;37.336;2023-12-04T03:34:16;9.65;;;4.47;;
76103;SDS011;64831;44.870;37.336;2023-12-04T03:36:42;7.30;;;3.78;;
76103;SDS011;64831;44.870;37.336;2023-12-04T03:39:08;7.85;;;4.30;;
76103;SDS011;64831;44.870;37.336;2023-12-04T03:41:34;9.98;;;3.78;;
76103;SDS011;64831;44.870;37.336;2023-12-04T03:44:00;15.80;;;5.00;;
76103;SDS011;64831;44.870;37.336;2023-12-04T03:46:25;7.90;;;3.90;;
76103;SDS011;64831;44.870;37.336;2023-12-04T03:48:51;11.48;;;4.65;;
76103;SDS011;64831;44.870;37.336;2023-12-04T03:51:17;10.43;;;4.78;;
76103;SDS011;64831;44.870;37.336;2023-12-04T03:53:43;12.93;;;5.38;;
76103;SDS011;64831;44.870;37.336;2023-12-04T03:56:10;16.42;;;4.68;;
76103;SDS011;64831;44.870;37.336;2023-12-04T03:58:36;10.02;;;4.85;;
76103;SDS011;64831;44.870;37.336;2023-12-04T04:01:04;7.25;;;2.88;;
76103;SDS011;64831;44.870;37.336;2023-12-04T04:03:30;13.15;;;4.50;;
76103;SDS011;64831;44.870;37.336;2023-12-04T04:05:55;12.15;;;4.38;;
76103;SDS011;64831;44.870;37.336;2023-12-04T04:08:21;8.68;;;3.55;;
76103;SDS011;64831;44.870;37.336;2023-12-04T04:10:47;9.85;;;3.78;;
76103;SDS011;64831;44.870;37.336;2023-12-04T04:13:13;16.33;;;4.72;;
76103;SDS011;64831;44.870;37.336;2023-12-04T04:15:39;20.42;;;5.93;;
76103;SDS011;64831;44.870;37.336;2023-12-04T04:18:05;11.25;;;4.95;;
76103;SDS011;64831;44.870;37.336;2023-12-04T04:20:31;11.48;;;4.72;;
76103;SDS011;64831;44.870;37.336;2023-12-04T04:22:57;6.43;;;3.33;;
76103;SDS011;64831;44.870;37.336;2023-12-04T04:25:23;8.10;;;3.60;;
76103;SDS011;64831;44.870;37.336;2023-12-04T04:27:49;7.03;;;3.22;;
76103;SDS011;64831;44.870;37.336;2023-12-04T04:30:15;6.45;;;3.03;;
76103;SDS011;64831;44.870;37.336;2023-12-04T04:32:42;15.77;;;4.22;;
76103;SDS011;64831;44.870;37.336;2023-12-04T04:35:08;3.83;;;2.17;;
76103;SDS011;64831;44.870;37.336;2023-12-04T04:37:34;10.38;;;3.83;;
76103;SDS011;64831;44.870;37.336;2023-12-04T04:40:01;4.57;;;2.58;;
76103;SDS011;64831;44.870;37.336;2023-12-04T04:42:27;6.68;;;2.88;;
76103;SDS011;64831;44.870;37.336;2023-12-04T04:44:53;11.20;;;4.10;;
76103;SDS011;64831;44.870;37.336;2023-12-04T04:47:19;8.75;;;4.40;;
76103;SDS011;64831;44.870;37.336;2023-12-04T04:49:44;11.32;;;3.05;;
76103;SDS011;64831;44.870;37.336;2023-12-04T04:52:10;12.15;;;4.10;;
76103;SDS011;64831;44.870;37.336;2023-12-04T04:54:36;7.65;;;2.95;;
76103;SDS011;64831;44.870;37.336;2023-12-04T04:57:02;6.72;;;3.40;;
76103;SDS011;64831;44.870;37.336;2023-12-04T04:59:28;5.05;;;2.42;;
76103;SDS011;64831;44.870;37.336;2023-12-04T05:01:56;3.90;;;2.05;;
76103;SDS011;64831;44.870;37.336;2023-12-04T05:04:22;6.53;;;3.08;;
76103;SDS011;64831;44.870;37.336;2023-12-04T05:06:48;5.35;;;3.38;;
76103;SDS011;64831;44.870;37.336;2023-12-04T05:09:14;12.20;;;3.40;;
76103;SDS011;64831;44.870;37.336;2023-12-04T05:11:39;18.52;;;5.38;;
76103;SDS011;64831;44.870;37.336;2023-12-04T05:14:05;10.55;;;4.45;;
76103;SDS011;64831;44.870;37.336;2023-12-04T05:16:31;4.30;;;2.33;;
76103;SDS011;64831;44.870;37.336;2023-12-04T05:18:57;5.60;;;3.13;;
76103;SDS011;64831;44.870;37.336;2023-12-04T05:21:23;6.75;;;2.83;;
76103;SDS011;64831;44.870;37.336;2023-12-04T05:23:49;18.58;;;5.18;;
76103;SDS011;64831;44.870;37.336;2023-12-04T05:26:15;14.00;;;5.45;;
76103;SDS011;64831;44.870;37.336;2023-12-04T05:28:41;10.00;;;4.78;;
76103;SDS011;64831;44.870;37.336;2023-12-04T05:31:07;5.60;;;2.67;;
76103;SDS011;64831;44.870;37.336;2023-12-04T05:33:33;10.80;;;5.22;;
76103;SDS011;64831;44.870;37.336;2023-12-04T05:35:59;18.27;;;5.30;;
76103;SDS011;64831;44.870;37.336;2023-12-04T05:38:25;5.82;;;1.92;;
76103;SDS011;64831;44.870;37.336;2023-12-04T05:40:51;4.25;;;2.20;;
76103;SDS011;64831;44.870;37.336;2023-12-04T05:43:17;10.27;;;4.82;;
76103;SDS011;64831;44.870;37.336;2023-12-04T05:45:44;13.93;;;4.60;;
76103;SDS011;64831;44.870;37.336;2023-12-04T05:48:10;8.20;;;4.05;;
76103;SDS011;64831;44.870;37.336;2023-12-04T05:50:36;4.55;;;2.25;;
76103;SDS011;64831;44.870;37.336;2023-12-04T05:53:02;8.07;;;3.40;;
76103;SDS011;64831;44.870;37.336;2023-12-04T05:55:27;9.48;;;4.10;;
76103;SDS011;64831;44.870;37.336;2023-12-04T05:57:53;12.75;;;3.40;;
76103;SDS011;64831;44.870;37.336;2023-12-04T06:00:19;8.38;;;3.72;;
76103;SDS011;64831;44.870;37.336;2023-12-04T06:02:47;9.60;;;3.20;;
76103;SDS011;64831;44.870;37.336;2023-12-04T06:05:13;5.13;;;2.97;;
76103;SDS011;64831;44.870;37.336;2023-12-04T06:07:39;7.05;;;2.80;;
76103;SDS011;64831;44.870;37.336;2023-12-04T06:10:06;4.53;;;2.95;;
76103;SDS011;64831;44.870;37.336;2023-12-04T06:12:33;5.47;;;2.30;;
76103;SDS011;64831;44.870;37.336;2023-12-04T06:14:59;8.30;;;3.13;;
76103;SDS011;64831;44.870;37.336;2023-12-04T06:17:26;7.88;;;3.03;;
76103;SDS011;64831;44.870;37.336;2023-12-04T06:19:53;6.75;;;3.75;;
76103;SDS011;64831;44.870;37.336;2023-12-04T06:22:19;10.45;;;3.40;;
76103;SDS011;64831;44.870;37.336;2023-12-04T06:24:47;14.45;;;4.40;;
76103;SDS011;64831;44.870;37.336;2023-12-04T06:27:17;8.60;;;2.97;;
76103;SDS011;64831;44.870;37.336;2023-12-04T06:29:48;5.20;;;1.40;;
76103;SDS011;64831;44.870;37.336;2023-12-04T06:32:14;11.75;;;2.78;;
76103;SDS011;64831;44.870;37.336;2023-12-04T06:34:41;2.35;;;1.48;;
76103;SDS011;64831;44.870;37.336;2023-12-04T06:37:10;3.58;;;2.00;;
76103;SDS011;64831;44.870;37.336;2023-12-04T06:39:37;7.90;;;2.80;;
76103;SDS011;64831;44.870;37.336;2023-12-04T06:42:07;8.63;;;3.42;;
76103;SDS011;64831;44.870;37.336;2023-12-04T06:44:35;8.00;;;2.10;;
76103;SDS011;64831;44.870;37.336;2023-12-04T06:47:01;7.35;;;2.45;;
76103;SDS011;64831;44.870;37.336;2023-12-04T06:49:31;10.52;;;3.38;;
76103;SDS011;64831;44.870;37.336;2023-12-04T06:51:58;5.43;;;2.67;;
76103;SDS011;64831;44.870;37.336;2023-12-04T06:54:25;7.88;;;2.75;;
76103;SDS011;64831;44.870;37.336;2023-12-04T06:56:51;5.30;;;3.03;;
76103;SDS011;64831;44.870;37.336;2023-12-04T06:59:17;2.20;;;1.63;;
76103;SDS011;64831;44.870;37.336;2023-12-04T07:01:44;10.20;;;3.42;;
76103;SDS011;64831;44.870;37.336;2023-12-04T07:04:10;12.77;;;4.03;;
76103;SDS011;64831;44.870;37.336;2023-12-04T07:06:36;5.05;;;2.45;;
76103;SDS011;64831;44.870;37.336;2023-12-04T07:09:03;10.18;;;3.65;;
76103;SDS011;64831;44.870;37.336;2023-12-04T07:11:29;10.45;;;3.42;;
76103;SDS011;64831;44.870;37.336;2023-12-04T07:13:55;4.95;;;2.85;;
76103;SDS011;64831;44.870;37.336;2023-12-04T07:16:21;6.88;;;3.20;;
76103;SDS011;64831;44.870;37.336;2023-12-04T07:18:47;4.28;;;2.42;;
76103;SDS011;64831;44.870;37.336;2023-12-04T07:21:13;5.20;;;2.63;;
76103;SDS011;64831;44.870;37.336;2023-12-04T07:23:38;5.07;;;2.30;;
76103;SDS011;64831;44.870;37.336;2023-12-04T07:26:04;6.75;;;3.08;;
76103;SDS011;64831;44.870;37.336;2023-12-04T07:28:32;13.38;;;3.40;;
76103;SDS011;64831;44.870;37.336;2023-12-04T07:30:58;10.13;;;2.35;;
76103;SDS011;64831;44.870;37.336;2023-12-04T07:33:25;3.53;;;2.00;;
76103;SDS011;64831;44.870;37.336;2023-12-04T07:35:51;7.20;;;3.30;;
76103;SDS011;64831;44.870;37.336;2023-12-04T07:38:17;6.60;;;2.67;;
76103;SDS011;64831;44.870;37.336;2023-12-04T07:40:44;3.47;;;2.08;;
76103;SDS011;64831;44.870;37.336;2023-12-04T07:43:10;8.68;;;3.70;;
76103;SDS011;64831;44.870;37.336;2023-12-04T07:45:37;4.68;;;2.50;;
76103;SDS011;64831;44.870;37.336;2023-12-04T07:48:03;16.90;;;3.75;;
76103;SDS011;64831;44.870;37.336;2023-12-04T07:50:30;4.65;;;2.70;;
76103;SDS011;64831;44.870;37.336;2023-12-04T07:52:55;7.25;;;3.15;;
76103;SDS011;64831;44.870;37.336;2023-12-04T07:55:21;4.18;;;2.58;;
76103;SDS011;64831;44.870;37.336;2023-12-04T07:57:47;12.48;;;3.65;;
76103;SDS011;64831;44.870;37.336;2023-12-04T08:00:13;8.13;;;3.42;;
76103;SDS011;64831;44.870;37.336;2023-12-04T08:02:40;6.25;;;3.35;;
76103;SDS011;64831;44.870;37.336;2023-12-04T08:05:07;7.25;;;3.75;;
76103;SDS011;64831;44.870;37.336;2023-12-04T08:07:33;15.95;;;4.28;;
76103;SDS011;64831;44.870;37.336;2023-12-04T08:09:59;8.13;;;3.17;;
76103;SDS011;64831;44.870;37.336;2023-12-04T08:12:25;10.77;;;3.90;;
76103;SDS011;64831;44.870;37.336;2023-12-04T08:14:52;7.68;;;3.88;;
76103;SDS011;64831;44.870;37.336;2023-12-04T08:17:18;8.38;;;3.60;;
76103;SDS011;64831;44.870;37.336;2023-12-04T08:19:44;7.07;;;3.42;;
76103;SDS011;64831;44.870;37.336;2023-12-04T08:22:10;5.18;;;2.67;;
76103;SDS011;64831;44.870;37.336;2023-12-04T08:24:36;9.50;;;4.25;;
76103;SDS011;64831;44.870;37.336;2023-12-04T08:27:02;10.50;;;4.20;;
76103;SDS011;64831;44.870;37.336;2023-12-04T08:29:28;13.60;;;4.60;;
76103;SDS011;64831;44.870;37.336;2023-12-04T08:31:54;6.45;;;2.67;;
76103;SDS011;64831;44.870;37.336;2023-12-04T08:34:20;6.00;;;2.70;;
76103;SDS011;64831;44.870;37.336;2023-12-04T08:36:46;4.88;;;3.00;;
76103;SDS011;64831;44.870;37.336;2023-12-04T08:39:12;9.50;;;4.35;;
76103;SDS011;64831;44.870;37.336;2023-12-04T08:41:38;3.90;;;2.63;;
76103;SDS011;64831;44.870;37.336;2023-12-04T08:44:04;7.97;;;3.50;;
76103;SDS011;64831;44.870;37.336;2023-12-04T08:46:30;10.15;;;3.38;;
76103;SDS011;64831;44.870;37.336;2023-12-04T08:48:56;8.15;;;3.28;;
76103;SDS011;64831;44.870;37.336;2023-12-04T08:51:22;6.50;;;3.13;;
76103;SDS011;64831;44.870;37.336;2023-12-04T08:53:48;9.05;;;4.32;;
76103;SDS011;64831;44.870;37.336;2023-12-04T08:56:13;11.63;;;4.38;;
76103;SDS011;64831;44.870;37.336;2023-12-04T08:58:39;6.97;;;2.65;;
76103;SDS011;64831;44.870;37.336;2023-12-04T09:01:05;11.10;;;3.63;;
76103;SDS011;64831;44.870;37.336;2023-12-04T09:03:31;5.97;;;2.72;;
76103;SDS011;64831;44.870;37.336;2023-12-04T09:05:57;7.80;;;3.45;;
76103;SDS011;64831;44.870;37.336;2023-12-04T09:08:23;11.25;;;4.68;;
76103;SDS011;64831;44.870;37.336;2023-12-04T09:10:52;9.17;;;4.30;;
76103;SDS011;64831;44.870;37.336;2023-12-04T09:13:18;6.07;;;3.10;;
76103;SDS011;64831;44.870;37.336;2023-12-04T09:15:44;11.20;;;4.07;;
76103;SDS011;64831;44.870;37.336;2023-12-04T09:18:10;6.00;;;3.17;;
76103;SDS011;64831;44.870;37.336;2023-12-04T09:20:36;10.25;;;3.22;;
76103;SDS011;64831;44.870;37.336;2023-12-04T09:23:02;7.05;;;3.25;;
76103;SDS011;64831;44.870;37.336;2023-12-04T09:25:28;4.82;;;2.60;;
76103;SDS011;64831;44.870;37.336;2023-12-04T09:27:54;5.45;;;2.83;;
76103;SDS011;64831;44.870;37.336;2023-12-04T09:30:20;7.57;;;2.85;;
76103;SDS011;64831;44.870;37.336;2023-12-04T09:32:46;5.55;;;3.08;;
76103;SDS011;64831;44.870;37.336;2023-12-04T09:35:12;7.10;;;3.80;;
76103;SDS011;64831;44.870;37.336;2023-12-04T09:37:37;7.70;;;3.17;;
76103;SDS011;64831;44.870;37.336;2023-12-04T09:40:03;6.05;;;2.70;;
76103;SDS011;64831;44.870;37.336;2023-12-04T09:42:30;4.80;;;2.40;;
76103;SDS011;64831;44.870;37.336;2023-12-04T09:44:58;9.65;;;4.07;;
76103;SDS011;64831;44.870;37.336;2023-12-04T09:47:24;4.68;;;2.83;;
76103;SDS011;64831;44.870;37.336;2023-12-04T09:49:51;8.25;;;3.58;;
76103;SDS011;64831;44.870;37.336;2023-12-04T09:52:22;3.83;;;2.17;;
76103;SDS011;64831;44.870;37.336;2023-12-04T09:54:48;7.20;;;2.80;;
76103;SDS011;64831;44.870;37.336;2023-12-04T09:57:16;8.40;;;4.28;;
76103;SDS011;64831;44.870;37.336;2023-12-04T09:59:43;12.55;;;4.50;;
76103;SDS011;64831;44.870;37.336;2023-12-04T10:02:11;7.72;;;2.75;;
76103;SDS011;64831;44.870;37.336;2023-12-04T10:04:37;3.28;;;2.17;;
76103;SDS011;64831;44.870;37.336;2023-12-04T10:07:03;8.80;;;3.90;;
76103;SDS011;64831;44.870;37.336;2023-12-04T10:09:29;9.43;;;3.85;;
76103;SDS011;64831;44.870;37.336;2023-12-04T10:11:55;5.38;;;3.08;;
76103;SDS011;64831;44.870;37.336;2023-12-04T10:14:22;5.03;;;3.25;;
76103;SDS011;64831;44.870;37.336;2023-12-04T10:16:48;7.60;;;4.00;;
76103;SDS011;64831;44.870;37.336;2023-12-04T10:19:25;5.15;;;2.95;;
76103;SDS011;64831;44.870;37.336;2023-12-04T10:21:54;6.25;;;3.65;;
76103;SDS011;64831;44.870;37.336;2023-12-04T10:26:57;5.13;;;3.08;;
76103;SDS011;64831;44.870;37.336;2023-12-04T10:29:24;11.40;;;2.92;;
76103;SDS011;64831;44.870;37.336;2023-12-04T10:31:52;2.65;;;1.75;;
76103;SDS011;64831;44.870;37.336;2023-12-04T10:34:21;2.55;;;1.50;;
76103;SDS011;64831;44.870;37.336;2023-12-04T10:36:51;2.83;;;1.77;;
76103;SDS011;64831;44.870;37.336;2023-12-04T10:39:17;4.68;;;1.73;;
76103;SDS011;64831;44.870;37.336;2023-12-04T10:41:44;4.38;;;1.60;;
76103;SDS011;64831;44.870;37.336;2023-12-04T10:44:12;1.58;;;1.27;;
76103;SDS011;64831;44.870;37.336;2023-12-04T10:46:42;3.10;;;1.70;;
76103;SDS011;64831;44.870;37.336;2023-12-04T10:49:11;1.73;;;1.38;;
76103;SDS011;64831;44.870;37.336;2023-12-04T10:51:39;3.03;;;1.77;;
76103;SDS011;64831;44.870;37.336;2023-12-04T10:54:05;1.95;;;1.02;;
76103;SDS011;64831;44.870;37.336;2023-12-04T10:56:33;2.97;;;1.40;;
76103;SDS011;64831;44.870;37.336;2023-12-04T10:59:06;4.05;;;2.38;;
76103;SDS011;64831;44.870;37.336;2023-12-04T11:01:44;2.95;;;1.50;;
76103;SDS011;64831;44.870;37.336;2023-12-04T11:04:12;4.60;;;2.05;;
76103;SDS011;64831;44.870;37.336;2023-12-04T11:06:46;6.82;;;3.85;;
76103;SDS011;64831;44.870;37.336;2023-12-04T11:09:17;3.45;;;1.90;;
76103;SDS011;64831;44.870;37.336;2023-12-04T11:11:46;2.72;;;1.75;;
76103;SDS011;64831;44.870;37.336;2023-12-04T11:14:17;8.70;;;2.40;;
76103;SDS011;64831;44.870;37.336;2023-12-04T11:16:48;5.15;;;2.80;;
76103;SDS011;64831;44.870;37.336;2023-12-04T11:19:29;5.82;;;2.85;;
76103;SDS011;64831;44.870;37.336;2023-12-04T11:22:04;5.60;;;1.75;;
76103;SDS011;64831;44.870;37.336;2023-12-04T11:24:32;6.03;;;3.00;;
76103;SDS011;64831;44.870;37.336;2023-12-04T11:27:00;4.43;;;2.72;;
76103;SDS011;64831;44.870;37.336;2023-12-04T11:29:27;4.40;;;2.53;;
76103;SDS011;64831;44.870;37.336;2023-12-04T11:31:54;4.78;;;2.40;;
76103;SDS011;64831;44.870;37.336;2023-12-04T11:34:20;6.03;;;2.90;;
76103;SDS011;64831;44.870;37.336;2023-12-04T11:36:46;2.92;;;1.77;;
76103;SDS011;64831;44.870;37.336;2023-12-04T11:39:12;6.43;;;3.13;;
76103;SDS011;64831;44.870;37.336;2023-12-04T11:41:40;4.93;;;2.85;;
76103;SDS011;64831;44.870;37.336;2023-12-04T11:44:13;5.38;;;2.83;;
76103;SDS011;64831;44.870;37.336;2023-12-04T11:49:31;8.55;;;3.10;;
76103;SDS011;64831;44.870;37.336;2023-12-04T11:51:58;5.00;;;2.58;;
76103;SDS011;64831;44.870;37.336;2023-12-04T11:54:26;5.05;;;2.60;;
76103;SDS011;64831;44.870;37.336;2023-12-04T11:57:00;6.50;;;3.38;;
76103;SDS011;64831;44.870;37.336;2023-12-04T11:59:46;3.40;;;2.22;;
76103;SDS011;64831;44.870;37.336;2023-12-04T12:02:12;7.30;;;3.75;;
76103;SDS011;64831;44.870;37.336;2023-12-04T12:04:39;5.00;;;2.50;;
76103;SDS011;64831;44.870;37.336;2023-12-04T12:07:05;5.43;;;2.67;;
76103;SDS011;64831;44.870;37.336;2023-12-04T12:09:32;5.70;;;2.80;;
76103;SDS011;64831;44.870;37.336;2023-12-04T12:11:59;7.65;;;3.15;;
76103;SDS011;64831;44.870;37.336;2023-12-04T12:14:26;6.65;;;3.42;;
76103;SDS011;64831;44.870;37.336;2023-12-04T12:16:54;8.18;;;3.75;;
76103;SDS011;64831;44.870;37.336;2023-12-04T12:19:20;7.30;;;2.80;;
76103;SDS011;64831;44.870;37.336;2023-12-04T12:21:47;8.75;;;4.80;;
76103;SDS011;64831;44.870;37.336;2023-12-04T12:24:14;11.40;;;4.63;;
76103;SDS011;64831;44.870;37.336;2023-12-04T12:26:40;11.23;;;5.20;;
76103;SDS011;64831;44.870;37.336;2023-12-04T12:29:08;13.52;;;5.90;;
76103;SDS011;64831;44.870;37.336;2023-12-04T12:31:34;9.00;;;4.18;;
76103;SDS011;64831;44.870;37.336;2023-12-04T12:34:00;13.48;;;5.05;;
76103;SDS011;64831;44.870;37.336;2023-12-04T12:36:26;9.02;;;4.53;;
76103;SDS011;64831;44.870;37.336;2023-12-04T12:38:52;6.82;;;3.58;;
76103;SDS011;64831;44.870;37.336;2023-12-04T12:41:19;11.40;;;4.38;;
76103;SDS011;64831;44.870;37.336;2023-12-04T12:43:45;11.52;;;5.32;;
76103;SDS011;64831;44.870;37.336;2023-12-04T12:46:12;6.57;;;2.88;;
76103;SDS011;64831;44.870;37.336;2023-12-04T12:48:39;11.32;;;4.63;;
76103;SDS011;64831;44.870;37.336;2023-12-04T12:51:05;6.55;;;3.38;;
76103;SDS011;64831;44.870;37.336;2023-12-04T12:53:32;4.70;;;2.72;;
76103;SDS011;64831;44.870;37.336;2023-12-04T12:56:02;9.38;;;4.30;;
76103;SDS011;64831;44.870;37.336;2023-12-04T13:00:55;5.43;;;3.17;;
76103;SDS011;64831;44.870;37.336;2023-12-04T13:03:21;7.15;;;3.78;;
76103;SDS011;64831;44.870;37.336;2023-12-04T13:05:47;8.07;;;3.97;;
76103;SDS011;64831;44.870;37.336;2023-12-04T13:08:13;8.15;;;3.85;;
76103;SDS011;64831;44.870;37.336;2023-12-04T13:10:42;5.57;;;2.88;;
76103;SDS011;64831;44.870;37.336;2023-12-04T13:13:09;4.82;;;2.75;;
76103;SDS011;64831;44.870;37.336;2023-12-04T13:15:38;12.75;;;5.13;;
76103;SDS011;64831;44.870;37.336;2023-12-04T13:18:06;10.98;;;5.30;;
76103;SDS011;64831;44.870;37.336;2023-12-04T13:20:32;11.18;;;4.85;;
76103;SDS011;64831;44.870;37.336;2023-12-04T13:23:00;8.38;;;4.30;;
76103;SDS011;64831;44.870;37.336;2023-12-04T13:25:26;6.80;;;3.55;;
76103;SDS011;64831;44.870;37.336;2023-12-04T13:27:53;11.18;;;4.90;;
76103;SDS011;64831;44.870;37.336;2023-12-04T13:30:19;3.58;;;2.13;;
76103;SDS011;64831;44.870;37.336;2023-12-04T13:32:45;13.52;;;4.78;;
76103;SDS011;64831;44.870;37.336;2023-12-04T13:35:11;9.27;;;4.78;;
76103;SDS011;64831;44.870;37.336;2023-12-04T13:37:37;6.85;;;3.00;;
76103;SDS011;64831;44.870;37.336;2023-12-04T13:40:05;12.90;;;4.78;;
76103;SDS011;64831;44.870;37.336;2023-12-04T13:42:38;6.68;;;3.75;;
76103;SDS011;64831;44.870;37.336;2023-12-04T13:45:22;7.57;;;3.70;;
76103;SDS011;64831;44.870;37.336;2023-12-04T13:47:48;8.77;;;3.75;;
76103;SDS011;64831;44.870;37.336;2023-12-04T13:50:17;8.98;;;2.38;;
76103;SDS011;64831;44.870;37.336;2023-12-04T13:52:43;8.27;;;4.28;;
76103;SDS011;64831;44.870;37.336;2023-12-04T13:55:09;12.63;;;5.25;;
76103;SDS011;64831;44.870;37.336;2023-12-04T13:57:46;5.22;;;2.78;;
76103;SDS011;64831;44.870;37.336;2023-12-04T14:00:24;11.90;;;4.97;;
76103;SDS011;64831;44.870;37.336;2023-12-04T14:02:50;4.50;;;2.50;;
76103;SDS011;64831;44.870;37.336;2023-12-04T14:05:25;6.57;;;3.70;;
76103;SDS011;64831;44.870;37.336;2023-12-04T14:07:51;12.05;;;4.47;;
76103;SDS011;64831;44.870;37.336;2023-12-04T14:10:17;10.52;;;4.47;;
76103;SDS011;64831;44.870;37.336;2023-12-04T14:12:43;7.43;;;3.40;;
76103;SDS011;64831;44.870;37.336;2023-12-04T14:15:09;11.43;;;5.00;;
76103;SDS011;64831;44.870;37.336;2023-12-04T14:17:35;9.55;;;4.97;;
76103;SDS011;64831;44.870;37.336;2023-12-04T14:20:04;6.40;;;3.83;;
76103;SDS011;64831;44.870;37.336;2023-12-04T14:22:40;5.68;;;3.20;;
76103;SDS011;64831;44.870;37.336;2023-12-04T14:25:07;11.27;;;5.20;;
76103;SDS011;64831;44.870;37.336;2023-12-04T14:27:34;9.18;;;5.07;;
76103;SDS011;64831;44.870;37.336;2023-12-04T14:30:01;11.25;;;3.70;;
76103;SDS011;64831;44.870;37.336;2023-12-04T14:32:29;13.60;;;6.07;;
76103;SDS011;64831;44.870;37.336;2023-12-04T14:34:55;10.40;;;4.68;;